Time;durP1;ratioP1;P1;durP2;ratioP2;P2;SDS_P1;SDS_P2;PMS_P1;PMS_P2;Temp;Humidity;BMP_temperature;BMP_pressure;BME280_temperature;BME280_humidity;BME280_pressure;Samples;Min_cycle;Max_cycle;Signal;HPM_P1;HPM_P2
2022/10/02 00:01:51;;;;;;;;;;;23.20;99.90;;;;;;5034288;28;19921;-60
2022/10/02 00:04:23;;;;;;;;;;;23.30;99.90;;;;;;5034376;28;19998;-61
2022/10/02 00:06:49;;;;;;;;;;;23.20;99.90;;;;;;5034353;28;19994;-59
2022/10/02 00:09:21;;;;;;;;;;;23.20;99.90;;;;;;5034328;28;19909;-61
2022/10/02 00:11:48;;;;;;;;;;;23.20;99.90;;;;;;5034333;28;19912;-61
2022/10/02 00:14:19;;;;;;;;;;;23.20;99.90;;;;;;5034406;28;19905;-60
2022/10/02 00:16:47;;;;;;;;;;;23.20;99.90;;;;;;5034284;28;19905;-61
2022/10/02 00:19:15;;;;;;;;;;;23.20;99.90;;;;;;5034426;28;19916;-60
2022/10/02 00:21:53;;;;;;;;;;;23.20;99.90;;;;;;5034315;28;19912;-60
2022/10/02 00:24:26;;;;;;;;;;;23.20;99.90;;;;;;5034079;28;19913;-60
2022/10/02 00:26:56;;;;;;;;;;;23.20;99.90;;;;;;5034030;28;19908;-61
2022/10/02 00:29:30;;;;;;;;;;;23.20;99.90;;;;;;5033916;28;19905;-60
2022/10/02 00:32:02;;;;;;;;;;;23.10;99.90;;;;;;5033965;28;19908;-59
2022/10/02 00:34:29;;;;;;;;;;;23.10;99.90;;;;;;5033891;28;20336;-59
2022/10/02 00:37:10;;;;;;;;;;;23.10;99.90;;;;;;5033878;28;19905;-58
2022/10/02 00:39:38;;;;;;;;;;;23.10;99.90;;;;;;5033716;28;19909;-56
2022/10/02 00:42:27;;;;;;;;;;;23.10;99.90;;;;;;5033732;28;20360;-56
2022/10/02 00:44:55;;;;;;;;;;;23.00;99.90;;;;;;5033731;28;19913;-58
2022/10/02 00:47:24;;;;;;;;;;;23.00;99.90;;;;;;5033813;28;20411;-58
2022/10/02 00:49:56;;;;;;;;;;;23.00;99.90;;;;;;5033518;28;19909;-57
2022/10/02 00:52:44;;;;;;;;;;;23.00;99.90;;;;;;5032219;28;19950;-57
2022/10/02 00:55:30;;;;;;;;;;;23.00;99.90;;;;;;5033710;28;19940;-58
2022/10/02 00:57:56;;;;;;;;;;;23.00;99.90;;;;;;5033389;28;19921;-59
2022/10/02 01:00:22;;;;;;;;;;;23.00;99.90;;;;;;5033747;28;19924;-59
2022/10/02 01:02:57;;;;;;;;;;;22.90;99.90;;;;;;5033253;28;19996;-60
2022/10/02 01:05:24;;;;;;;;;;;22.90;99.90;;;;;;5032078;28;20365;-60
2022/10/02 01:07:51;;;;;;;;;;;22.90;99.90;;;;;;5033400;28;19912;-60
2022/10/02 01:10:17;;;;;;;;;;;22.90;99.90;;;;;;5032222;28;19905;-59
2022/10/02 01:12:43;;;;;;;;;;;22.90;99.90;;;;;;5032104;28;19905;-56
2022/10/02 01:15:13;;;;;;;;;;;22.90;99.90;;;;;;5033126;28;19909;-58
2022/10/02 01:17:39;;;;;;;;;;;22.90;99.90;;;;;;5033077;28;19928;-59
2022/10/02 01:20:06;;;;;;;;;;;22.90;99.90;;;;;;5032931;28;20276;-60
2022/10/02 01:22:31;;;;;;;;;;;22.90;99.90;;;;;;5031608;28;20030;-58
2022/10/02 01:24:59;;;;;;;;;;;22.90;99.90;;;;;;5032881;28;19969;-57
2022/10/02 01:27:25;;;;;;;;;;;22.90;99.90;;;;;;5032977;28;19909;-58
2022/10/02 01:29:54;;;;;;;;;;;22.80;99.90;;;;;;5033133;28;20252;-60
2022/10/02 01:32:20;;;;;;;;;;;22.90;99.90;;;;;;5032831;28;19952;-57
2022/10/02 01:34:46;;;;;;;;;;;22.80;99.90;;;;;;5033028;28;20352;-57
2022/10/02 01:37:12;;;;;;;;;;;22.80;99.90;;;;;;5032900;28;19951;-58
2022/10/02 01:39:38;;;;;;;;;;;22.80;99.90;;;;;;5032685;28;19905;-57
2022/10/02 01:42:03;;;;;;;;;;;22.80;99.90;;;;;;5032715;28;20367;-57
2022/10/02 01:44:30;;;;;;;;;;;22.80;99.90;;;;;;5032647;28;19920;-57
2022/10/02 01:47:25;;;;;;;;;;;22.80;99.90;;;;;;5032552;28;19905;-58
2022/10/02 01:50:06;;;;;;;;;;;22.80;99.90;;;;;;5023554;28;19905;-58
2022/10/02 01:52:38;;;;;;;;;;;22.80;99.90;;;;;;5032591;28;19905;-58
2022/10/02 01:55:04;;;;;;;;;;;22.70;99.90;;;;;;5032528;28;19905;-57
2022/10/02 01:57:29;;;;;;;;;;;22.80;99.90;;;;;;5032304;28;20253;-57
2022/10/02 01:59:57;;;;;;;;;;;22.80;99.90;;;;;;5032682;28;19913;-57
2022/10/02 02:02:30;;;;;;;;;;;22.70;99.90;;;;;;5032108;28;19912;-57
2022/10/02 02:04:58;;;;;;;;;;;22.70;99.90;;;;;;5032152;28;19966;-57
2022/10/02 02:07:29;;;;;;;;;;;22.70;99.90;;;;;;5032443;28;19905;-58
2022/10/02 02:10:01;;;;;;;;;;;22.70;99.90;;;;;;5032066;28;19905;-58
2022/10/02 02:12:32;;;;;;;;;;;22.70;99.90;;;;;;5032058;28;19912;-60
2022/10/02 02:15:06;;;;;;;;;;;22.70;99.90;;;;;;5031898;28;19905;-61
2022/10/02 02:17:46;;;;;;;;;;;22.70;99.90;;;;;;5032067;28;19905;-57
2022/10/02 02:20:14;;;;;;;;;;;22.60;99.90;;;;;;5031992;28;20253;-56
2022/10/02 02:22:43;;;;;;;;;;;22.60;99.90;;;;;;5031720;28;19905;-57
2022/10/02 02:25:14;;;;;;;;;;;22.60;99.90;;;;;;5031913;28;19981;-57
2022/10/02 02:27:41;;;;;;;;;;;22.60;99.90;;;;;;5032058;28;19909;-56
2022/10/02 02:30:10;;;;;;;;;;;22.60;99.90;;;;;;5031999;28;19905;-60
2022/10/02 02:32:38;;;;;;;;;;;22.60;99.90;;;;;;5031787;28;19920;-59
2022/10/02 02:35:10;;;;;;;;;;;22.50;99.90;;;;;;5031745;28;20372;-61
2022/10/02 02:37:38;;;;;;;;;;;22.50;99.90;;;;;;5030613;28;19905;-59
2022/10/02 02:40:08;;;;;;;;;;;22.50;99.90;;;;;;5031670;28;19905;-61
2022/10/02 02:42:37;;;;;;;;;;;22.40;99.90;;;;;;5031836;28;19905;-60
2022/10/02 02:45:10;;;;;;;;;;;22.40;99.90;;;;;;5031639;28;19917;-61
2022/10/02 02:47:45;;;;;;;;;;;22.40;99.90;;;;;;5031730;28;19909;-60
2022/10/02 02:50:15;;;;;;;;;;;22.40;99.90;;;;;;5031598;28;19913;-59
2022/10/02 02:52:43;;;;;;;;;;;22.30;99.90;;;;;;5031527;28;19909;-60
2022/10/02 02:55:14;;;;;;;;;;;22.40;99.90;;;;;;5031616;28;19901;-61
2022/10/02 02:57:43;;;;;;;;;;;22.30;99.90;;;;;;5030337;28;20356;-60
2022/10/02 03:00:09;;;;;;;;;;;22.40;99.90;;;;;;5031962;28;19964;-60
2022/10/02 03:02:35;;;;;;;;;;;22.30;99.90;;;;;;5031566;28;19905;-60
2022/10/02 03:05:00;;;;;;;;;;;22.30;99.90;;;;;;5031492;28;20253;-60
2022/10/02 03:07:26;;;;;;;;;;;22.30;99.90;;;;;;5031601;28;19927;-59
2022/10/02 03:10:07;;;;;;;;;;;22.30;99.90;;;;;;5031603;28;19912;-60
2022/10/02 03:13:02;;;;;;;;;;;22.30;99.90;;;;;;5030265;28;20275;-60
2022/10/02 03:15:32;;;;;;;;;;;22.30;99.90;;;;;;4994923;28;19905;-61
2022/10/02 03:18:15;;;;;;;;;;;22.30;99.90;;;;;;5031852;28;19932;-60
2022/10/02 03:20:51;;;;;;;;;;;22.30;99.90;;;;;;5031430;28;19913;-58
2022/10/02 03:23:35;;;;;;;;;;;22.30;99.90;;;;;;5031638;28;19905;-60
2022/10/02 03:26:03;;;;;;;;;;;22.30;99.90;;;;;;5031323;28;19971;-58
2022/10/02 03:28:35;;;;;;;;;;;22.20;99.90;;;;;;5030083;28;19905;-59
2022/10/02 03:31:01;;;;;;;;;;;22.30;99.90;;;;;;5031285;28;19909;-60
2022/10/02 03:33:29;;;;;;;;;;;22.20;99.90;;;;;;5032849;28;20318;-59
2022/10/02 03:35:54;;;;;;;;;;;22.20;99.90;;;;;;5034952;28;19905;-59
2022/10/02 03:38:22;;;;;;;;;;;22.20;99.90;;;;;;5035133;28;19951;-60
2022/10/02 03:40:51;;;;;;;;;;;22.20;99.90;;;;;;5035091;28;19962;-59
2022/10/02 03:43:19;;;;;;;;;;;22.20;99.90;;;;;;5034855;28;19909;-59
2022/10/02 03:45:44;;;;;;;;;;;22.10;99.90;;;;;;5034545;28;19913;-59
2022/10/02 03:48:10;;;;;;;;;;;22.10;99.90;;;;;;5034745;28;19912;-59
2022/10/02 03:50:35;;;;;;;;;;;22.10;99.90;;;;;;5034674;28;19916;-59
2022/10/02 03:53:05;;;;;;;;;;;22.10;99.90;;;;;;5034706;28;20000;-59
2022/10/02 03:55:33;;;;;;;;;;;22.10;99.90;;;;;;5034821;28;20276;-59
2022/10/02 03:58:02;;;;;;;;;;;22.10;99.90;;;;;;5034745;28;19905;-59
2022/10/02 04:00:33;;;;;;;;;;;22.10;99.90;;;;;;5038082;22;19975;-58
2022/10/02 04:03:05;;;;;;;;;;;22.10;99.90;;;;;;5014654;28;19909;-58
2022/10/02 04:05:49;;;;;;;;;;;22.10;99.90;;;;;;5014654;28;19957;-59
2022/10/02 04:08:21;;;;;;;;;;;22.10;99.90;;;;;;5014873;28;19996;-58
2022/10/02 04:10:53;;;;;;;;;;;22.10;99.90;;;;;;5014655;28;19905;-59
2022/10/02 04:13:34;;;;;;;;;;;22.10;99.90;;;;;;5014645;28;20332;-58
2022/10/02 04:16:05;;;;;;;;;;;22.10;99.90;;;;;;5014628;28;20243;-58
2022/10/02 04:18:46;;;;;;;;;;;22.10;99.90;;;;;;5014510;28;20324;-58
2022/10/02 04:21:37;;;;;;;;;;;22.10;99.90;;;;;;5014476;28;20000;-59
2022/10/02 04:24:18;;;;;;;;;;;22.10;99.90;;;;;;5014373;28;19920;-59
2022/10/02 04:26:49;;;;;;;;;;;22.00;99.90;;;;;;5014365;28;19910;-58
2022/10/02 04:29:19;;;;;;;;;;;22.00;99.90;;;;;;5014272;28;20360;-58
2022/10/02 04:31:50;;;;;;;;;;;22.00;99.90;;;;;;5014509;28;19906;-58
2022/10/02 04:34:15;;;;;;;;;;;22.00;99.90;;;;;;5014248;28;19916;-58
2022/10/02 04:36:44;;;;;;;;;;;22.00;99.90;;;;;;5014153;28;19921;-59
2022/10/02 04:39:12;;;;;;;;;;;22.00;99.90;;;;;;5014046;28;19992;-59
2022/10/02 04:41:47;;;;;;;;;;;22.00;99.90;;;;;;5014004;28;19905;-59
2022/10/02 04:44:31;;;;;;;;;;;22.00;99.90;;;;;;5028866;28;20292;-60
2022/10/02 04:47:19;;;;;;;;;;;21.90;99.90;;;;;;5013937;28;19906;-60
2022/10/02 04:49:58;;;;;;;;;;;21.90;99.90;;;;;;5013847;28;19905;-58
2022/10/02 04:52:42;;;;;;;;;;;21.90;99.90;;;;;;5014132;28;19912;-58
2022/10/02 04:55:26;;;;;;;;;;;21.90;99.90;;;;;;5013840;28;20277;-58
2022/10/02 04:57:54;;;;;;;;;;;21.90;99.90;;;;;;5013815;28;19951;-58
2022/10/02 05:00:21;;;;;;;;;;;21.90;99.90;;;;;;5013583;28;20008;-59
2022/10/02 05:03:06;;;;;;;;;;;21.90;99.90;;;;;;5013710;28;19910;-58
2022/10/02 05:05:40;;;;;;;;;;;21.90;99.90;;;;;;5013592;28;19919;-57
2022/10/02 05:08:24;;;;;;;;;;;21.80;99.90;;;;;;5013544;28;19906;-58
2022/10/02 05:10:52;;;;;;;;;;;21.80;99.90;;;;;;5013553;28;19959;-58
2022/10/02 05:13:42;;;;;;;;;;;21.80;99.90;;;;;;5013446;28;19915;-58
2022/10/02 05:16:17;;;;;;;;;;;21.80;99.90;;;;;;5013440;28;20000;-58
2022/10/02 05:18:42;;;;;;;;;;;21.90;99.90;;;;;;5028597;28;19905;-58
2022/10/02 05:21:26;;;;;;;;;;;21.90;99.90;;;;;;5013335;28;20258;-58
2022/10/02 05:24:05;;;;;;;;;;;21.80;99.90;;;;;;5013172;28;19971;-58
2022/10/02 05:26:57;;;;;;;;;;;21.80;99.90;;;;;;5013213;28;20007;-57
2022/10/02 05:29:22;;;;;;;;;;;21.80;99.90;;;;;;5013268;28;19912;-60
2022/10/02 05:31:54;;;;;;;;;;;21.80;99.90;;;;;;5013070;28;19909;-59
2022/10/02 05:34:20;;;;;;;;;;;21.90;99.90;;;;;;5013052;28;19917;-59
2022/10/02 05:36:56;;;;;;;;;;;21.80;99.90;;;;;;5013008;28;20324;-59
2022/10/02 05:39:27;;;;;;;;;;;21.80;99.90;;;;;;5012882;28;19920;-60
2022/10/02 05:42:11;;;;;;;;;;;21.80;99.90;;;;;;5012812;28;19905;-59
2022/10/02 05:44:43;;;;;;;;;;;21.80;99.90;;;;;;5012805;28;20403;-59
2022/10/02 05:47:08;;;;;;;;;;;21.90;99.90;;;;;;5013023;28;20403;-58
2022/10/02 05:49:40;;;;;;;;;;;21.90;99.90;;;;;;5012836;28;19910;-58
2022/10/02 05:52:15;;;;;;;;;;;21.90;99.90;;;;;;5012844;28;19912;-60
2022/10/02 05:54:48;;;;;;;;;;;21.90;99.90;;;;;;5012787;28;19912;-58
2022/10/02 05:57:30;;;;;;;;;;;21.90;99.90;;;;;;5012030;28;20487;-58
2022/10/02 06:00:05;;;;;;;;;;;21.90;99.90;;;;;;5012598;28;19920;-57
2022/10/02 06:02:30;;;;;;;;;;;21.90;99.90;;;;;;5012605;28;19906;-59
2022/10/02 06:05:17;;;;;;;;;;;21.90;99.90;;;;;;5012630;28;19936;-59
2022/10/02 06:07:45;;;;;;;;;;;21.90;99.90;;;;;;5012610;28;20341;-57
2022/10/02 06:10:14;;;;;;;;;;;21.90;99.90;;;;;;5012402;28;19913;-58
2022/10/02 06:12:52;;;;;;;;;;;21.90;99.90;;;;;;5012348;28;19912;-57
2022/10/02 06:15:22;;;;;;;;;;;21.90;99.90;;;;;;5012336;28;19911;-58
2022/10/02 06:18:00;;;;;;;;;;;21.90;99.90;;;;;;5012339;28;19992;-58
2022/10/02 06:20:38;;;;;;;;;;;21.90;99.90;;;;;;5010945;28;19905;-59
2022/10/02 06:23:06;;;;;;;;;;;21.90;99.90;;;;;;5012338;28;20365;-59
2022/10/02 06:25:44;;;;;;;;;;;21.90;99.90;;;;;;5011992;28;20284;-58
2022/10/02 06:28:16;;;;;;;;;;;21.90;99.90;;;;;;5012206;28;19959;-59
2022/10/02 06:30:44;;;;;;;;;;;22.00;99.90;;;;;;5012224;28;20000;-58
2022/10/02 06:33:25;;;;;;;;;;;22.00;99.90;;;;;;5010821;28;20254;-58
2022/10/02 06:35:50;;;;;;;;;;;22.00;99.90;;;;;;5012065;28;19905;-59
2022/10/02 06:38:25;;;;;;;;;;;22.10;99.90;;;;;;5011943;28;20273;-58
2022/10/02 06:41:19;;;;;;;;;;;22.10;99.90;;;;;;5012054;28;19912;-59
2022/10/02 06:44:00;;;;;;;;;;;22.10;99.90;;;;;;4989458;28;19996;-58
2022/10/02 06:46:44;;;;;;;;;;;22.10;99.90;;;;;;5011938;28;19924;-59
2022/10/02 06:49:28;;;;;;;;;;;22.20;99.90;;;;;;5011937;28;19972;-58
2022/10/02 06:51:59;;;;;;;;;;;22.20;99.90;;;;;;5011943;28;20285;-58
2022/10/02 06:54:48;;;;;;;;;;;22.20;99.90;;;;;;5011975;28;19905;-58
2022/10/02 06:57:20;;;;;;;;;;;22.20;99.90;;;;;;5011732;28;19996;-58
2022/10/02 07:00:10;;;;;;;;;;;22.30;99.90;;;;;;5011717;28;20008;-57
2022/10/02 07:02:48;;;;;;;;;;;22.30;99.90;;;;;;5012005;28;19914;-58
2022/10/02 07:05:32;;;;;;;;;;;22.30;99.90;;;;;;5011746;28;20016;-58
2022/10/02 07:08:10;;;;;;;;;;;22.40;99.90;;;;;;5014341;28;19916;-58
2022/10/02 07:10:42;;;;;;;;;;;22.40;99.90;;;;;;5015702;28;19905;-57
2022/10/02 07:13:16;;;;;;;;;;;22.40;99.90;;;;;;5015619;28;19905;-57
2022/10/02 07:15:51;;;;;;;;;;;22.50;99.90;;;;;;5015541;28;19987;-58
2022/10/02 07:18:23;;;;;;;;;;;22.50;99.90;;;;;;5015656;28;20055;-57
2022/10/02 07:20:58;;;;;;;;;;;22.50;99.90;;;;;;5015808;28;19905;-58
2022/10/02 07:23:45;;;;;;;;;;;22.60;99.90;;;;;;5015544;28;19927;-58
2022/10/02 07:26:34;;;;;;;;;;;22.60;99.90;;;;;;5015449;28;19924;-58
2022/10/02 07:29:08;;;;;;;;;;;22.60;99.90;;;;;;5015515;28;20365;-59
2022/10/02 07:31:33;;;;;;;;;;;22.60;99.90;;;;;;5014322;28;20387;-58
2022/10/02 07:34:19;;;;;;;;;;;22.70;99.90;;;;;;5015245;28;19907;-61
2022/10/02 07:36:48;;;;;;;;;;;22.70;99.90;;;;;;5015366;28;20373;-59
2022/10/02 07:39:34;;;;;;;;;;;22.70;99.90;;;;;;5015243;28;20280;-58
2022/10/02 07:42:06;;;;;;;;;;;22.80;99.90;;;;;;5015241;28;19913;-60
2022/10/02 07:44:34;;;;;;;;;;;22.80;99.90;;;;;;5015255;28;20323;-60
2022/10/02 07:47:09;;;;;;;;;;;22.80;99.90;;;;;;5015184;28;20049;-60
2022/10/02 07:49:55;;;;;;;;;;;22.80;99.90;;;;;;5015401;28;19906;-60
2022/10/02 07:52:47;;;;;;;;;;;22.90;99.90;;;;;;5014927;28;19906;-60
2022/10/02 07:55:14;;;;;;;;;;;22.90;99.90;;;;;;5011762;28;20436;-60
2022/10/02 07:57:48;;;;;;;;;;;22.90;99.90;;;;;;5015021;28;19991;-60
2022/10/02 08:00:15;;;;;;;;;;;22.90;99.90;;;;;;5014719;28;20060;-60
2022/10/02 08:03:01;;;;;;;;;;;23.00;99.90;;;;;;5014629;28;19985;-60
2022/10/02 08:05:29;;;;;;;;;;;23.00;99.90;;;;;;5014222;28;20330;-60
2022/10/02 08:08:15;;;;;;;;;;;23.00;99.90;;;;;;5029892;28;19905;-60
2022/10/02 08:10:43;;;;;;;;;;;23.00;99.90;;;;;;5013968;28;19913;-60
2022/10/02 08:13:14;;;;;;;;;;;23.00;99.90;;;;;;5014471;28;19906;-60
2022/10/02 08:15:41;;;;;;;;;;;23.00;99.90;;;;;;5014477;28;20004;-60
2022/10/02 08:18:12;;;;;;;;;;;23.10;99.90;;;;;;5014451;28;19905;-61
2022/10/02 08:20:40;;;;;;;;;;;23.10;99.90;;;;;;5014021;28;19905;-61
2022/10/02 08:23:12;;;;;;;;;;;23.20;99.90;;;;;;5029774;28;20250;-60
2022/10/02 08:25:44;;;;;;;;;;;23.20;99.90;;;;;;5014400;28;19913;-60
2022/10/02 08:28:16;;;;;;;;;;;23.20;99.90;;;;;;5014314;28;19905;-60
2022/10/02 08:30:41;;;;;;;;;;;23.30;99.90;;;;;;5029389;28;20266;-60
2022/10/02 08:33:12;;;;;;;;;;;23.30;99.90;;;;;;5014271;28;19906;-60
2022/10/02 08:35:45;;;;;;;;;;;23.40;99.90;;;;;;5014349;28;20328;-60
2022/10/02 08:38:20;;;;;;;;;;;23.40;99.90;;;;;;5014131;28;19905;-60
2022/10/02 08:40:45;;;;;;;;;;;23.40;99.90;;;;;;5014003;28;19910;-61
2022/10/02 08:43:37;;;;;;;;;;;23.50;99.90;;;;;;5013946;28;19913;-60
2022/10/02 08:46:06;;;;;;;;;;;23.50;99.90;;;;;;5013940;28;19917;-60
2022/10/02 08:48:49;;;;;;;;;;;23.50;99.90;;;;;;5013925;28;19944;-60
2022/10/02 08:51:18;;;;;;;;;;;23.50;99.90;;;;;;5029144;28;20000;-60
2022/10/02 08:53:46;;;;;;;;;;;23.50;99.90;;;;;;5013925;28;19913;-60
2022/10/02 08:56:20;;;;;;;;;;;23.60;99.90;;;;;;5013808;28;19984;-60
2022/10/02 08:58:46;;;;;;;;;;;23.70;99.90;;;;;;5013785;28;19906;-62
2022/10/02 09:01:31;;;;;;;;;;;23.70;99.90;;;;;;5028773;28;19917;-61
2022/10/02 09:04:15;;;;;;;;;;;23.70;99.90;;;;;;5013589;28;20338;-60
2022/10/02 09:06:53;;;;;;;;;;;23.80;99.90;;;;;;5028838;28;19952;-60
2022/10/02 09:09:34;;;;;;;;;;;23.80;99.90;;;;;;5013557;28;19916;-60
2022/10/02 09:12:20;;;;;;;;;;;23.90;99.90;;;;;;5013366;28;19932;-61
2022/10/02 09:14:57;;;;;;;;;;;23.90;99.90;;;;;;5028607;28;19996;-59
2022/10/02 09:17:39;;;;;;;;;;;23.90;99.90;;;;;;5013281;28;19906;-60
2022/10/02 09:20:17;;;;;;;;;;;24.00;99.90;;;;;;5013363;28;19906;-61
2022/10/02 09:22:51;;;;;;;;;;;24.10;99.90;;;;;;5013345;28;20272;-60
2022/10/02 09:25:24;;;;;;;;;;;24.10;99.90;;;;;;5028130;28;19914;-60
2022/10/02 09:28:09;;;;;;;;;;;24.10;99.90;;;;;;5013146;28;20280;-60
2022/10/02 09:30:50;;;;;;;;;;;24.20;99.90;;;;;;5012023;28;19913;-60
2022/10/02 09:33:18;;;;;;;;;;;24.20;99.90;;;;;;5012992;28;19988;-60
2022/10/02 09:35:53;;;;;;;;;;;24.30;99.90;;;;;;5012851;28;19920;-60
2022/10/02 09:38:37;;;;;;;;;;;24.30;99.90;;;;;;5012934;28;19905;-61
2022/10/02 09:41:15;;;;;;;;;;;24.30;99.90;;;;;;5012934;28;19905;-61
2022/10/02 09:43:53;;;;;;;;;;;24.40;99.90;;;;;;5013024;28;19913;-59
2022/10/02 09:46:51;;;;;;;;;;;24.40;99.90;;;;;;5012951;28;19917;-60
2022/10/02 09:49:20;;;;;;;;;;;24.40;99.90;;;;;;5011280;28;19959;-60
2022/10/02 09:52:00;;;;;;;;;;;24.50;99.90;;;;;;5012732;28;20000;-60
2022/10/02 09:54:40;;;;;;;;;;;24.50;99.90;;;;;;5012785;28;20379;-60
2022/10/02 09:57:27;;;;;;;;;;;24.60;99.90;;;;;;5012612;28;19955;-60
2022/10/02 09:59:52;;;;;;;;;;;24.50;99.90;;;;;;5012617;28;19913;-59
2022/10/02 10:02:36;;;;;;;;;;;24.50;99.90;;;;;;5012545;28;20280;-59
2022/10/02 10:05:23;;;;;;;;;;;24.60;99.90;;;;;;5012462;28;19913;-60
2022/10/02 10:08:04;;;;;;;;;;;24.60;99.90;;;;;;5012494;28;19912;-59
2022/10/02 10:10:44;;;;;;;;;;;24.70;99.90;;;;;;5012517;28;19979;-59
2022/10/02 10:13:25;;;;;;;;;;;24.70;99.90;;;;;;5012473;28;19952;-58
2022/10/02 10:16:10;;;;;;;;;;;24.70;99.90;;;;;;5012338;28;19905;-61
2022/10/02 10:18:57;;;;;;;;;;;24.80;99.90;;;;;;5012256;28;19912;-61
2022/10/02 10:21:47;;;;;;;;;;;24.80;99.90;;;;;;5012179;28;20005;-61
2022/10/02 10:24:31;;;;;;;;;;;24.90;99.90;;;;;;5027545;28;19960;-60
2022/10/02 10:27:12;;;;;;;;;;;24.90;99.90;;;;;;5012169;28;19993;-60
2022/10/02 10:29:56;;;;;;;;;;;24.90;99.90;;;;;;5012092;28;19912;-61
2022/10/02 10:32:25;;;;;;;;;;;24.90;99.90;;;;;;5012019;28;19905;-60
2022/10/02 10:34:50;;;;;;;;;;;25.00;99.90;;;;;;5012072;28;20060;-60
2022/10/02 10:40:09;;;;;;;;;;;25.00;99.90;;;;;;5011845;28;19916;-60
2022/10/02 10:42:45;;;;;;;;;;;25.10;99.90;;;;;;5011509;28;19913;-59
2022/10/02 10:45:18;;;;;;;;;;;25.10;99.90;;;;;;5011769;28;20368;-60
2022/10/02 10:48:08;;;;;;;;;;;25.10;99.90;;;;;;5012208;28;20369;-60
2022/10/02 10:50:52;;;;;;;;;;;25.10;99.90;;;;;;5011863;28;19909;-60
2022/10/02 10:53:36;;;;;;;;;;;25.10;99.90;;;;;;5011751;28;20419;-59
2022/10/02 10:56:05;;;;;;;;;;;25.20;99.90;;;;;;5011876;28;19992;-60
2022/10/02 10:58:36;;;;;;;;;;;25.20;99.90;;;;;;5011807;28;19913;-58
2022/10/02 11:01:02;;;;;;;;;;;25.20;99.90;;;;;;5011628;28;19917;-60
2022/10/02 11:03:28;;;;;;;;;;;25.30;99.90;;;;;;5011995;28;19905;-62
2022/10/02 11:06:12;;;;;;;;;;;25.30;99.90;;;;;;5011678;28;19921;-60
2022/10/02 11:08:57;;;;;;;;;;;25.30;99.90;;;;;;5011607;28;19906;-60
2022/10/02 11:11:23;;;;;;;;;;;25.30;99.90;;;;;;5011557;28;19905;-59
2022/10/02 11:14:01;;;;;;;;;;;25.30;99.90;;;;;;5011572;28;20171;-60
2022/10/02 11:16:33;;;;;;;;;;;25.30;99.90;;;;;;5011691;28;19905;-61
2022/10/02 11:19:17;;;;;;;;;;;25.40;99.90;;;;;;5011687;28;19909;-60
2022/10/02 11:21:55;;;;;;;;;;;25.40;99.90;;;;;;5011856;28;19906;-60
2022/10/02 11:24:26;;;;;;;;;;;25.40;99.90;;;;;;5026740;28;20387;-60
2022/10/02 11:27:11;;;;;;;;;;;25.50;99.90;;;;;;5011583;28;19905;-60
2022/10/02 11:29:42;;;;;;;;;;;25.50;99.90;;;;;;5011593;28;19991;-59
2022/10/02 11:32:08;;;;;;;;;;;25.60;99.90;;;;;;5026750;28;20083;-60
2022/10/02 11:34:36;;;;;;;;;;;25.60;99.90;;;;;;5011601;28;19905;-61
2022/10/02 11:37:02;;;;;;;;;;;25.70;99.90;;;;;;5026412;28;20285;-59
2022/10/02 11:40:03;;;;;;;;;;;25.70;99.90;;;;;;5011501;28;19913;-59
2022/10/02 11:42:32;;;;;;;;;;;25.70;99.90;;;;;;4950740;29;19907;-59
2022/10/02 11:45:15;;;;;;;;;;;25.80;99.90;;;;;;4999736;28;19946;-60
2022/10/02 11:48:17;;;;;;;;;;;25.80;99.90;;;;;;5011302;28;19905;-59
2022/10/02 11:50:45;;;;;;;;;;;25.80;99.90;;;;;;4950747;29;19913;-60
2022/10/02 11:53:34;;;;;;;;;;;25.90;99.90;;;;;;5000330;28;19951;-59
2022/10/02 11:55:59;;;;;;;;;;;25.90;99.90;;;;;;5014906;28;20312;-60
2022/10/02 11:58:25;;;;;;;;;;;25.90;99.90;;;;;;5014877;28;19911;-59
2022/10/02 12:01:09;;;;;;;;;;;26.00;99.90;;;;;;5029884;28;20266;-60
2022/10/02 12:03:41;;;;;;;;;;;26.00;99.90;;;;;;5030007;28;19943;-59
2022/10/02 12:06:15;;;;;;;;;;;26.00;99.90;;;;;;5014663;28;19917;-59
2022/10/02 12:08:53;;;;;;;;;;;26.10;99.90;;;;;;5014692;28;20265;-59
2022/10/02 12:11:32;;;;;;;;;;;26.10;99.90;;;;;;5014718;28;19960;-60
2022/10/02 12:14:21;;;;;;;;;;;26.10;99.90;;;;;;5014496;28;19959;-59
2022/10/02 12:16:53;;;;;;;;;;;26.20;99.90;;;;;;5013546;28;19967;-59
2022/10/02 12:19:34;;;;;;;;;;;26.30;99.90;;;;;;5014771;28;19905;-60
2022/10/02 12:28:03;;;;;;;;;;;26.30;99.90;;;;;;5014625;28;19931;-59
2022/10/02 12:30:48;;;;;;;;;;;26.40;99.90;;;;;;5014355;28;19958;-59
2022/10/02 12:33:14;;;;;;;;;;;26.50;99.90;;;;;;5012327;28;19906;-59
2022/10/02 12:35:46;;;;;;;;;;;26.60;99.90;;;;;;5014292;28;19909;-60
2022/10/02 12:38:18;;;;;;;;;;;26.60;99.90;;;;;;5014209;28;19909;-60
2022/10/02 12:40:51;;;;;;;;;;;26.60;99.90;;;;;;5014120;28;19912;-59
2022/10/02 12:43:35;;;;;;;;;;;26.70;99.90;;;;;;5014284;28;19905;-60
2022/10/02 12:46:12;;;;;;;;;;;26.70;99.90;;;;;;5013777;28;20378;-60
2022/10/02 12:48:58;;;;;;;;;;;26.70;99.90;;;;;;5014024;28;20272;-59
2022/10/02 12:51:31;;;;;;;;;;;26.80;99.90;;;;;;5013283;28;19913;-60
2022/10/02 12:53:56;;;;;;;;;;;26.80;99.90;;;;;;5013870;28;20361;-60
2022/10/02 12:56:41;;;;;;;;;;;26.80;99.90;;;;;;5013909;28;19912;-59
2022/10/02 12:59:12;;;;;;;;;;;26.90;99.90;;;;;;5013857;28;19906;-60
2022/10/02 13:02:05;;;;;;;;;;;26.90;99.90;;;;;;5013596;28;20281;-60
2022/10/02 13:04:36;;;;;;;;;;;26.90;99.90;;;;;;5013301;28;19968;-60
2022/10/02 13:07:02;;;;;;;;;;;27.00;99.90;;;;;;5013709;28;19905;-59
2022/10/02 13:09:36;;;;;;;;;;;27.00;99.90;;;;;;5013647;28;19913;-59
2022/10/02 13:12:08;;;;;;;;;;;27.00;99.90;;;;;;5013392;28;19910;-59
2022/10/02 13:14:49;;;;;;;;;;;27.00;99.90;;;;;;5013404;28;19916;-61
2022/10/02 13:17:21;;;;;;;;;;;27.00;99.90;;;;;;5028553;28;19905;-61
2022/10/02 13:19:53;;;;;;;;;;;27.10;99.90;;;;;;5013358;28;19905;-61
2022/10/02 13:22:38;;;;;;;;;;;27.10;99.90;;;;;;5013625;28;19905;-61
2022/10/02 13:25:22;;;;;;;;;;;27.10;99.90;;;;;;5013337;28;19913;-61
2022/10/02 13:28:12;;;;;;;;;;;27.10;99.90;;;;;;5013186;28;19916;-60
2022/10/02 13:30:42;;;;;;;;;;;27.20;99.90;;;;;;5013170;28;20199;-60
2022/10/02 13:33:18;;;;;;;;;;;27.20;99.90;;;;;;5013083;28;19905;-60
2022/10/02 13:36:02;;;;;;;;;;;27.20;99.90;;;;;;5013168;28;20436;-60
2022/10/02 13:38:56;;;;;;;;;;;27.20;99.90;;;;;;5012849;28;19912;-59
2022/10/02 13:41:25;;;;;;;;;;;27.20;99.90;;;;;;5013136;28;19905;-60
2022/10/02 13:43:50;;;;;;;;;;;27.30;99.90;;;;;;5012955;28;20348;-59
2022/10/02 13:46:35;;;;;;;;;;;27.30;99.90;;;;;;5012802;28;19944;-60
2022/10/02 13:49:29;;;;;;;;;;;27.30;99.90;;;;;;5012876;28;19951;-60
2022/10/02 13:52:01;;;;;;;;;;;27.30;99.90;;;;;;4999596;28;19935;-60
2022/10/02 13:54:49;;;;;;;;;;;27.30;99.90;;;;;;5012747;28;19905;-59
2022/10/02 13:57:33;;;;;;;;;;;27.30;99.90;;;;;;5012736;28;19996;-59
2022/10/02 13:59:58;;;;;;;;;;;27.30;99.90;;;;;;5012465;28;20004;-60
2022/10/02 14:02:39;;;;;;;;;;;27.40;99.90;;;;;;5012719;28;20002;-61
2022/10/02 14:05:11;;;;;;;;;;;27.50;99.90;;;;;;5012549;28;20308;-60
2022/10/02 14:08:08;;;;;;;;;;;27.50;99.90;;;;;;5012561;28;19969;-60
2022/10/02 14:10:45;;;;;;;;;;;27.50;99.90;;;;;;4977620;28;20387;-60
2022/10/02 14:13:23;;;;;;;;;;;27.60;99.90;;;;;;5012483;28;19916;-55
2022/10/02 14:15:56;;;;;;;;;;;27.60;99.90;;;;;;5009788;28;20366;-58
2022/10/02 14:18:21;;;;;;;;;;;27.50;99.90;;;;;;5012159;28;19909;-59
2022/10/02 14:20:57;;;;;;;;;;;27.60;99.90;;;;;;5008558;28;19996;-59
2022/10/02 14:23:29;;;;;;;;;;;27.50;99.90;;;;;;5010829;28;20269;-60
2022/10/02 14:26:13;;;;;;;;;;;27.50;99.90;;;;;;5024429;28;20000;-58
2022/10/02 14:28:41;;;;;;;;;;;27.50;99.90;;;;;;5009873;28;20249;-59
2022/10/02 14:31:16;;;;;;;;;;;27.50;99.90;;;;;;5011367;28;19916;-58
2022/10/02 14:33:48;;;;;;;;;;;27.50;99.90;;;;;;5008513;28;19909;-60
2022/10/02 14:36:17;;;;;;;;;;;27.60;99.90;;;;;;5001063;28;19943;-56
2022/10/02 14:38:51;;;;;;;;;;;27.50;99.90;;;;;;5003847;28;19914;-56
2022/10/02 14:41:23;;;;;;;;;;;27.60;99.90;;;;;;5008899;28;19905;-58
2022/10/02 14:43:48;;;;;;;;;;;27.50;99.90;;;;;;5015919;28;19971;-59
2022/10/02 14:46:17;;;;;;;;;;;27.50;99.90;;;;;;5014104;28;19922;-60
2022/10/02 14:49:02;;;;;;;;;;;27.60;99.90;;;;;;5011485;28;19912;-59
2022/10/02 14:51:40;;;;;;;;;;;27.50;99.90;;;;;;5011909;28;19909;-58
2022/10/02 14:54:05;;;;;;;;;;;27.60;99.90;;;;;;5011648;28;19905;-57
2022/10/02 14:56:50;;;;;;;;;;;27.50;99.90;;;;;;5007403;28;19909;-56
2022/10/02 14:59:19;;;;;;;;;;;27.50;99.90;;;;;;5007981;28;19906;-57
2022/10/02 15:01:53;;;;;;;;;;;27.60;99.90;;;;;;5011562;28;19917;-59
2022/10/02 15:04:22;;;;;;;;;;;27.60;99.90;;;;;;5005312;28;20713;-58
2022/10/02 15:06:50;;;;;;;;;;;27.60;99.90;;;;;;5007781;28;19910;-58
2022/10/02 15:09:23;;;;;;;;;;;27.70;99.90;;;;;;5008178;28;20284;-59